Station: Mullion

  Atmospheric Gas Attenuation - ITU Rec 676-11   --------------- db/100km ---------------
Date Time Temp RH % AH g/m3 Dew Point Wind Direction Speed kph Gust kph Barometer mB Rainfall Since 9am 24GHz 47GHz 76GHz 122GHz 134GHz 241GHz
22 13:10 21.9 54 10.42 12.3 24 30 1013.1 0 23.0 26.4 42.7 112.4 111.0 383.6
22 12:50 20.9 57 10.38 12.1 26 32 1013.1 0 23.0 26.6 43.1 113.4 111.9 386.6
22 12:40 21.2 58 10.75 12.6 26 30 1013.1 0 23.8 27.1 44.4 116.8 116.2 401.7
22 12:30 20.5 55 9.79 11.2 28 35 1013.1 0 21.8 25.8 41.1 107.9 105.0 362.4
22 12:20 20 55 9.5 10.9 28 33 1013.1 0 21.2 25.5 40.2 105.6 102.0 351.9
22 12:10 20 54 9.33 10.6 28 33 1013.1 0 20.8 25.3 39.6 103.9 99.9 344.5
22 11:50 19.3 63 10.45 12.2 22 28 1013.1 0 23.2 27.2 44.3 116.5 115.1 397.7
22 11:40 20.2 61 10.66 12.6 24 26 1013.1 0 23.6 27.3 44.6 117.3 116.5 402.7
22 11:20 19.2 60 9.89 11.4 20 24 1013.1 0 22.1 26.4 42.1 110.7 108.0 372.9
22 11:10 18.3 66 10.32 12 20 24 1013.1 0 23.0 27.3 44.3 116.5 114.9 396.8
22 10:50 17.5 73 10.88 12.6 19 24 1013.1 0 24.3 28.5 47.1 123.9 123.6 427.2
22 10:30 18.2 69 10.72 12.4 20 24 1013.1 0 23.9 28.0 46.0 121.0 120.4 415.9
22 10:20 18.6 68 10.82 12.6 15 19 1013.1 0 24.1 28.0 46.2 121.5 121.1 418.5
22 10:10 17.3 68 10.02 11.5 17 20 1013.1 0 22.4 27.1 43.7 114.8 112.4 388.0
22 09:50 17.7 70 10.56 12.3 20 24 1013.1 0 23.6 27.9 45.6 120.0 119.0 411.1
22 09:40 17.6 70 10.5 12.1 19 26 1013.1 0 23.4 27.8 45.4 119.5 118.4 408.8
22 09:20 15.9 72 9.75 11 20 26 1013.1 0 21.9 27.1 43.3 113.9 110.8 382.3
22 09:10 16.6 71 10.03 11.3 24 26 1013.1 0 22.5 27.4 44.1 115.9 113.6 391.9
22 08:50 16.2 71 9.79 11 22 28 1013.1 0 22.0 27.1 43.3 113.9 110.9 382.7
22 08:40 16.3 73 10.13 11.4 20 24 1013.1 0 22.7 27.6 44.7 117.5 115.3 398.1
22 08:20 15.3 72 9.4 10.3 22 22 1013.1 0 21.2 26.7 42.2 111.0 107.0 368.8
22 08:10 15.2 76 9.86 11 19 20 1013.1 0 22.2 27.5 44.2 116.1 113.3 390.9
22 08:00 14.8 76 9.63 10.7 19 20 1013.1 0 21.7 27.3 43.4 114.2 110.8 382.0
22 07:50 14.3 77 9.46 10.3 19 20 1013.1 0 21.4 27.1 43.0 113.1 109.2 376.4
22 07:40 14 79 9.53 10.4 19 20 1013.1 0 21.6 27.4 43.5 114.3 110.6 381.2
22 07:30 13.6 80 9.42 10.2 20 20 1013.1 0 21.4 27.3 43.2 113.6 109.7 377.9
22 07:10 12.7 82 9.13 9.7 22 24 1013.1 0 20.8 27.1 42.5 111.7 107.0 368.3
22 06:50 12.1 85 9.12 9.7 22 24 1013.1 0 20.8 27.3 42.8 112.5 107.7 370.7
22 06:40 12 86 9.17 9.7 22 24 1013.1 0 20.9 27.4 43.1 113.2 108.5 373.6
22 06:30 11.7 87 9.1 9.7 22 24 1013.1 0 20.8 27.3 42.9 112.8 108.0 371.7
22 06:20 11.6 87 9.04 9.5 24 24 1013.1 0 20.6 27.3 42.7 112.3 107.3 369.2
22 06:10 11.5 89 9.19 9.7 24 26 1013.1 0 21.0 27.6 43.4 114.1 109.5 377.0
22 05:50 11.1 91 9.17 9.7 20 22 1013.1 0 20.9 27.7 43.6 114.5 109.8 378.0
22 05:40 11.2 93 9.43 10.1 20 22 1013.1 0 21.5 28.1 44.6 117.3 113.3 390.3
22 05:10 11.6 90 9.36 10.1 26 28 1013.1 0 21.3 27.8 44.1 115.9 111.7 384.8
22 05:00 11.4 92 9.44 10.2 24 26 1013.1 0 21.5 28.0 44.6 117.1 113.1 389.7
22 04:40 11.4 93 9.55 10.3 22 22 1013.1 0 21.8 28.2 45.0 118.4 114.7 395.2
22 04:30 11.5 93 9.61 10.4 22 24 1013.1 0 21.9 28.3 45.2 118.9 115.4 397.6
22 04:20 11.8 92 9.68 10.5 24 26 1013.1 0 22.0 28.3 45.4 119.3 115.9 399.5
22 04:00 11.9 92 9.74 10.6 24 26 1013.1 0 22.1 28.4 45.6 119.8 116.6 402.0
22 03:50 12.2 90 9.71 10.6 26 28 1013.1 0 22.1 28.2 45.3 119.0 115.7 398.9
22 03:40 12.2 90 9.71 10.7 28 28 1013.1 0 22.1 28.2 45.3 119.0 115.7 398.9
22 03:30 12.1 91 9.76 10.7 28 30 1013.1 0 22.2 28.3 45.5 119.7 116.6 401.9
22 03:20 12.1 92 9.87 10.8 30 32 1013.1 0 22.4 28.5 46.0 121.0 118.2 407.3
22 03:10 12.1 91 9.76 10.7 30 30 1013.1 0 22.2 28.3 45.5 119.7 116.6 401.9
22 02:50 12.1 93 9.97 11 28 32 1013.1 0 22.6 28.7 46.4 122.1 119.6 412.3
22 02:40 12.2 92 9.93 11 28 30 1013.1 0 22.5 28.6 46.2 121.5 118.8 409.8
22 02:30 12.1 94 10.08 11.1 28 32 1013.1 0 22.9 28.9 46.9 123.4 121.1 417.8
22 02:20 12.2 94 10.14 11.2 28 30 1013.1 0 23.0 29.0 47.1 123.9 121.8 420.2
22 02:10 12.3 93 10.1 11.2 30 30 1013.1 0 22.9 28.9 46.9 123.3 121.1 417.7
22 01:50 12.2 94 10.14 11.2 26 28 1013.1 0 23.0 29.0 47.1 123.9 121.8 420.2
22 01:40 12.4 92 10.05 11.2 28 30 1013.1 0 22.8 28.8 46.6 122.6 120.2 414.7
22 01:30 12.5 92 10.12 11.3 32 33 1013.1 0 22.9 28.8 46.8 123.2 121.1 417.6
22 01:20 12.5 92 10.12 11.3 32 33 1013.1 0 22.9 28.8 46.8 123.2 121.1 417.6
22 01:10 12.4 93 10.16 11.3 32 33 1013.1 0 23.0 28.9 47.1 123.9 121.8 420.1
22 00:50 12.4 93 10.16 11.3 33 35 1013.1 0 23.0 28.9 47.1 123.9 121.8 420.1
22 00:40 12.6 92 10.18 11.4 35 37 1013.1 0 23.0 28.9 47.0 123.8 121.8 420.0
22 00:30 12.6 93 10.29 11.5 37 39 1013.1 0 23.3 29.1 47.5 125.0 123.3 425.5
22 00:20 12.4 95 10.38 11.6 35 37 1013.1 0 23.5 29.3 48.0 126.4 124.9 431.1
22 00:10 12.5 95 10.45 11.7 35 35 1013.1 0 23.6 29.4 48.3 127.1 125.8 434.1
21 23:50 13 92 10.43 11.8 39 41 1013.1 0 23.6 29.2 47.9 126.0 124.7 430.3
21 23:40 13.3 91 10.51 11.8 41 44 1013.1 0 23.7 29.3 48.0 126.4 125.3 432.6
21 23:30 13.5 89 10.41 11.8 44 46 1013.1 0 23.5 29.0 47.5 125.0 123.6 426.5
21 23:20 13.6 89 10.47 11.9 44 48 1013.1 0 23.6 29.1 47.7 125.5 124.3 428.9
21 23:10 13.8 88 10.49 11.9 46 50 1013.1 0 23.6 29.1 47.6 125.4 124.2 428.8
21 22:50 14 86 10.37 11.8 48 50 1013.1 0 23.4 28.8 47.0 123.7 122.2 421.8
21 22:40 14.2 85 10.38 11.7 44 48 1013.1 0 23.4 28.7 46.9 123.5 122.0 421.2
21 22:30 14.3 85 10.44 11.8 44 46 1013.1 0 23.5 28.8 47.1 124.0 122.7 423.6
21 22:20 14.6 83 10.39 11.8 46 48 1013.1 0 23.4 28.6 46.7 123.0 121.5 419.5
21 22:10 14.9 82 10.45 11.9 44 50 1013.1 0 23.5 28.6 46.8 123.2 121.9 420.8
21 21:50 15.3 79 10.32 11.8 44 48 1013.1 0 23.2 28.3 46.0 121.1 119.5 412.4
21 21:40 15.1 81 10.45 11.9 37 41 1013.1 0 23.5 28.6 46.7 122.9 121.6 419.7
21 21:30 15 84 10.77 12.3 35 37 1013.1 0 24.2 29.1 48.1 126.6 126.2 435.8
21 21:20 15.3 81 10.58 12.1 35 39 1013.1 0 23.7 28.7 47.1 124.0 123.1 424.9
21 21:10 15.4 81 10.64 12.2 35 39 1013.1 0 23.9 28.8 47.3 124.5 123.7 427.3
21 20:50 16 78 10.63 12.2 41 44 1013.1 0 23.8 28.6 46.9 123.5 122.6 423.5
21 20:40 16.1 77 10.55 12.1 37 41 1013.1 0 23.6 28.4 46.5 122.4 121.4 419.1
21 20:30 16.3 75 10.4 11.9 35 37 1013.1 0 23.3 28.1 45.8 120.4 119.0 410.9
21 20:20 16.6 73 10.31 11.8 37 39 1013.1 0 23.1 27.8 45.2 119.0 117.3 405.1
21 20:10 16.9 73 10.5 12 39 43 1013.1 0 23.5 28.1 45.8 120.6 119.4 412.5
21 19:50 17.4 69 10.23 11.6 41 46 1013.1 0 22.9 27.5 44.5 116.9 115.0 397.2
21 19:40 18.2 64 9.95 11.4 43 44 1013.1 0 22.2 26.8 42.9 112.8 110.2 380.4
21 19:30 18.2 62 9.64 10.9 41 46 1013.1 0 21.6 26.3 41.7 109.5 106.2 366.3
21 19:20 18.7 61 9.77 11.1 35 37 1013.1 0 21.8 26.3 41.9 110.2 107.2 369.8
21 19:10 19 58 9.45 10.7 39 41 1013.1 0 21.1 25.7 40.5 106.4 102.7 354.1
21 18:50 19.3 59 9.79 11.1 33 43 1013.1 0 21.8 26.2 41.7 109.5 106.6 367.9
21 18:40 19.2 62 10.22 11.8 37 41 1013.1 0 22.8 26.9 43.4 114.2 112.3 387.8
21 18:30 19.7 60 10.19 11.8 35 43 1013.1 0 22.7 26.7 43.0 113.1 111.2 384.0
21 18:20 19.6 59 9.96 11.5 37 41 1013.1 0 22.2 26.4 42.2 110.9 108.4 374.1
21 18:10 19.7 60 10.19 11.8 43 52 1013.1 0 22.7 26.7 43.0 113.1 111.2 384.0
21 17:50 20.5 53 9.43 10.8 41 44 1013.1 0 21.0 25.3 39.7 104.2 100.5 346.7
21 17:40 21.3 51 9.51 10.9 37 41 1013.1 0 21.1 25.2 39.6 104.0 100.5 346.7
21 17:30 20.6 51 9.13 10.3 33 35 1013.1 0 20.4 24.8 38.5 101.1 96.7 333.3
21 17:20 21.1 53 9.76 11.2 37 43 1013.1 0 21.7 25.6 40.6 106.8 103.8 358.4
21 17:10 20.6 52 9.31 10.5 39 44 1013.1 0 20.8 25.1 39.2 102.9 98.9 341.0
21 16:50 21.5 48 9.05 10.1 33 41 1013.1 0 20.2 24.4 37.8 99.2 94.6 326.2
21 16:40 21 50 9.16 10.4 35 43 1013.1 0 20.4 24.7 38.4 100.9 96.5 332.9
21 16:30 21.2 54 10.01 11.6 37 43 1013.1 0 22.2 26.0 41.5 109.2 106.8 368.8
21 16:20 21.6 51 9.67 11 35 44 1013.1 0 21.5 25.3 40.0 105.2 102.0 352.2
21 16:10 21 51 9.34 10.7 35 39 1013.1 0 20.8 25.0 39.1 102.7 98.7 340.6

Last Refresh: 22-Jan-2022 13:14:35

Bureau of Meteorology